createdAt,value
2023-01-12T00:01:45.987Z,4.50
2023-01-12T00:04:14.127Z,4.50
2023-01-12T00:06:41.394Z,4.50
2023-01-12T00:09:08.671Z,4.50
2023-01-12T00:11:37.015Z,4.40
2023-01-12T00:14:05.427Z,4.40
2023-01-12T00:16:35.270Z,4.40
2023-01-12T00:19:18.840Z,4.50
2023-01-12T00:21:58.607Z,4.40
2023-01-12T00:24:27.746Z,4.30
2023-01-12T00:26:55.922Z,4.40
2023-01-12T00:29:23.847Z,4.40
2023-01-12T00:31:52.853Z,4.40
2023-01-12T00:34:19.979Z,4.40
2023-01-12T00:36:47.675Z,4.50
2023-01-12T00:39:15.623Z,4.50
2023-01-12T00:42:02.005Z,4.60
2023-01-12T00:44:47.981Z,4.60
2023-01-12T00:47:16.210Z,4.60
2023-01-12T00:49:44.139Z,4.60
2023-01-12T00:52:25.060Z,4.70
2023-01-12T00:54:56.670Z,4.70
2023-01-12T00:57:23.318Z,4.70
2023-01-12T00:59:50.646Z,4.80
2023-01-12T01:02:17.397Z,4.80
2023-01-12T01:04:45.773Z,4.80
2023-01-12T01:07:16.087Z,4.90
2023-01-12T01:09:44.284Z,4.90
2023-01-12T01:12:11.225Z,5.00
2023-01-12T01:14:38.154Z,5.00
2023-01-12T01:17:05.470Z,5.10
2023-01-12T01:19:32.335Z,5.10
2023-01-12T01:21:59.193Z,5.10
2023-01-12T01:24:26.180Z,5.20
2023-01-12T01:26:53.010Z,5.10
2023-01-12T01:29:19.923Z,5.20
2023-01-12T01:31:47.772Z,5.10
2023-01-12T01:34:15.133Z,5.10
2023-01-12T01:36:42.740Z,5.10
2023-01-12T01:39:09.618Z,5.10
2023-01-12T01:41:36.367Z,5.10
2023-01-12T01:44:23.314Z,5.10
2023-01-12T01:46:54.915Z,5.20
2023-01-12T01:49:39.862Z,5.10
2023-01-12T01:52:16.972Z,5.10
2023-01-12T01:54:55.917Z,5.20
2023-01-12T01:57:26.386Z,5.20
2023-01-12T01:59:57.060Z,5.20
2023-01-12T02:02:26.632Z,5.30
2023-01-12T02:04:55.756Z,5.40
2023-01-12T02:07:22.756Z,5.30
2023-01-12T02:09:49.593Z,5.30
2023-01-12T02:12:35.039Z,5.40
2023-01-12T02:15:20.820Z,5.40
2023-01-12T02:18:05.007Z,5.50
2023-01-12T02:21:21.118Z,5.50
2023-01-12T02:24:02.852Z,5.60
2023-01-12T02:26:47.499Z,5.60
2023-01-12T02:29:47.894Z,5.60
2023-01-12T02:32:39.518Z,5.60
2023-01-12T02:35:12.438Z,5.50
2023-01-12T02:37:50.235Z,5.50
2023-01-12T02:40:34.503Z,5.50
2023-01-12T02:43:15.031Z,5.50
2023-01-12T02:45:54.506Z,5.50
2023-01-12T02:49:00.407Z,5.50
2023-01-12T02:51:37.611Z,5.40
2023-01-12T02:54:04.280Z,5.40
2023-01-12T02:56:39.275Z,5.40
2023-01-12T02:59:13.735Z,5.40
2023-01-12T03:01:42.423Z,5.40
2023-01-12T03:04:11.709Z,5.40
2023-01-12T03:06:45.447Z,5.40
2023-01-12T03:09:15.277Z,5.40
2023-01-12T03:11:43.971Z,5.40
2023-01-12T03:14:13.916Z,5.40
2023-01-12T03:16:41.164Z,5.40
2023-01-12T03:19:21.004Z,5.50
2023-01-12T03:22:05.932Z,5.40
2023-01-12T03:24:37.348Z,5.50
2023-01-12T03:27:14.844Z,5.40
2023-01-12T03:29:47.081Z,5.50
2023-01-12T03:32:14.100Z,5.50
2023-01-12T03:34:40.920Z,5.50
2023-01-12T03:37:11.222Z,5.50
2023-01-12T03:40:01.669Z,5.50
2023-01-12T03:42:31.398Z,5.40
2023-01-12T03:45:34.614Z,5.40
2023-01-12T03:48:39.926Z,5.40
2023-01-12T03:51:14.369Z,5.40
2023-01-12T03:53:44.027Z,5.40
2023-01-12T03:56:14.230Z,5.40
2023-01-12T03:58:41.496Z,5.40
2023-01-12T04:01:08.277Z,5.40
2023-01-12T04:03:35.445Z,5.30
2023-01-12T04:06:02.327Z,5.30
2023-01-12T04:08:29.089Z,5.30
2023-01-12T04:10:56.285Z,5.30
2023-01-12T04:13:22.973Z,5.40
2023-01-12T04:15:49.991Z,5.40
2023-01-12T04:18:16.696Z,5.40
2023-01-12T04:20:43.410Z,5.40
2023-01-12T04:23:10.218Z,5.40
2023-01-12T04:25:37.320Z,5.50
2023-01-12T04:28:04.647Z,5.50
2023-01-12T04:30:33.658Z,5.50
2023-01-12T04:33:05.602Z,5.50
2023-01-12T04:35:32.351Z,5.50
2023-01-12T04:37:59.034Z,5.50
2023-01-12T04:40:26.147Z,5.60
2023-01-12T04:43:08.369Z,5.50
2023-01-12T04:45:38.419Z,5.60
2023-01-12T04:48:08.621Z,5.60
2023-01-12T04:50:35.560Z,5.60
2023-01-12T04:53:03.446Z,5.60
2023-01-12T04:55:30.269Z,5.60
2023-01-12T04:57:57.460Z,5.60
2023-01-12T05:00:31.877Z,5.60
2023-01-12T05:03:02.308Z,5.70
2023-01-12T05:05:31.273Z,5.70
2023-01-12T05:08:22.324Z,5.80
2023-01-12T05:10:57.718Z,5.80
2023-01-12T05:13:26.860Z,5.80
2023-01-12T05:15:53.795Z,5.80
2023-01-12T05:18:20.657Z,5.90
2023-01-12T05:20:47.522Z,5.90
2023-01-12T05:23:14.267Z,5.90
2023-01-12T05:25:40.920Z,5.90
2023-01-12T05:28:07.656Z,5.90
2023-01-12T05:30:34.429Z,6.00
2023-01-12T05:33:01.126Z,6.00
2023-01-12T05:35:27.806Z,6.00
2023-01-12T05:37:57.807Z,6.00
2023-01-12T05:40:25.057Z,5.90
2023-01-12T05:43:10.978Z,5.90
2023-01-12T05:45:37.744Z,5.90
2023-01-12T05:48:05.022Z,5.90
2023-01-12T05:50:31.976Z,6.00
2023-01-12T05:52:58.672Z,6.00
2023-01-12T05:55:25.435Z,6.00
2023-01-12T05:57:52.512Z,6.00
2023-01-12T06:00:20.012Z,6.00
2023-01-12T06:02:46.963Z,6.00
2023-01-12T06:05:13.693Z,6.00
2023-01-12T06:07:40.429Z,6.00
2023-01-12T06:10:07.951Z,5.90
2023-01-12T06:12:53.374Z,5.90
2023-01-12T06:15:20.219Z,5.90
2023-01-12T06:17:46.880Z,5.90
2023-01-12T06:20:17.365Z,5.90
2023-01-12T06:22:45.107Z,5.90
2023-01-12T06:25:12.771Z,5.90
2023-01-12T06:27:39.618Z,5.90
2023-01-12T06:30:07.904Z,5.90
2023-01-12T06:32:34.927Z,5.90
2023-01-12T06:35:14.137Z,5.90
2023-01-12T06:37:54.913Z,5.90
2023-01-12T06:40:21.598Z,6.00
2023-01-12T06:42:48.324Z,5.90
2023-01-12T06:45:15.151Z,6.00
2023-01-12T06:47:52.244Z,6.00
2023-01-12T06:50:19.154Z,6.00
2023-01-12T06:52:45.841Z,6.00
2023-01-12T06:55:12.830Z,6.00
2023-01-12T06:57:39.573Z,6.10
2023-01-12T07:00:06.953Z,6.10
2023-01-12T07:02:33.795Z,6.10
2023-01-12T07:05:00.576Z,6.10
2023-01-12T07:07:27.477Z,6.20
2023-01-12T07:09:54.272Z,6.20
2023-01-12T07:12:21.117Z,6.20
2023-01-12T07:14:48.060Z,6.20
2023-01-12T07:17:14.846Z,6.20
2023-01-12T07:19:42.307Z,6.20
2023-01-12T07:22:09.150Z,6.20
2023-01-12T07:24:35.928Z,6.20
2023-01-12T07:27:02.724Z,6.20
2023-01-12T07:29:29.520Z,6.10
2023-01-12T07:31:56.422Z,6.20
2023-01-12T07:34:23.287Z,6.20
2023-01-12T07:36:51.320Z,6.10
2023-01-12T07:39:17.989Z,6.10
2023-01-12T07:42:06.301Z,6.10
2023-01-12T07:44:32.938Z,6.10
2023-01-12T07:46:59.714Z,6.10
2023-01-12T07:49:27.048Z,6.10
2023-01-12T07:51:55.116Z,6.10
2023-01-12T07:54:22.368Z,6.20
2023-01-12T07:56:49.306Z,6.20
2023-01-12T07:59:16.491Z,6.10
2023-01-12T08:01:43.528Z,6.20
2023-01-12T08:04:10.285Z,6.20
2023-01-12T08:06:37.005Z,6.20
2023-01-12T08:09:04.037Z,6.20
2023-01-12T08:11:30.763Z,6.20
2023-01-12T08:13:58.591Z,6.20
2023-01-12T08:16:35.946Z,6.20
2023-01-12T08:19:12.663Z,6.40
2023-01-12T08:21:47.114Z,6.20
2023-01-12T08:24:18.731Z,6.20
2023-01-12T08:26:50.881Z,6.20
2023-01-12T08:29:45.370Z,6.30
2023-01-12T08:32:13.837Z,6.30
2023-01-12T08:34:43.771Z,6.30
2023-01-12T08:37:14.340Z,6.30
2023-01-12T08:39:41.348Z,6.30
2023-01-12T08:42:08.641Z,6.30
2023-01-12T08:44:36.298Z,6.30
2023-01-12T08:47:14.566Z,6.30
2023-01-12T08:49:41.485Z,6.40
2023-01-12T08:52:08.149Z,6.40
2023-01-12T08:54:36.221Z,6.40
2023-01-12T08:57:03.182Z,6.40
2023-01-12T08:59:30.387Z,6.40
2023-01-12T09:01:57.282Z,6.40
2023-01-12T09:04:24.296Z,6.40
2023-01-12T09:06:51.102Z,6.40
2023-01-12T09:09:20.037Z,6.40
2023-01-12T09:11:48.911Z,6.50
2023-01-12T09:14:16.409Z,6.50
2023-01-12T09:16:43.616Z,6.50
2023-01-12T09:19:10.957Z,6.50
2023-01-12T09:21:40.206Z,6.70
2023-01-12T09:24:08.153Z,6.60
2023-01-12T09:26:43.542Z,6.70
2023-01-12T09:29:12.220Z,6.70
2023-01-12T09:31:41.293Z,6.70
2023-01-12T09:34:08.585Z,6.70
2023-01-12T09:36:37.814Z,6.80
2023-01-12T09:39:10.251Z,6.80
2023-01-12T09:42:10.765Z,6.80
2023-01-12T09:44:58.968Z,6.80
2023-01-12T09:48:02.010Z,6.80
2023-01-12T09:51:15.698Z,6.80
2023-01-12T09:53:42.683Z,6.80
2023-01-12T09:56:12.416Z,6.90
2023-01-12T09:59:18.558Z,6.90
2023-01-12T10:01:46.029Z,7.00
2023-01-12T10:04:13.569Z,7.00
2023-01-12T10:06:41.198Z,7.00
2023-01-12T10:09:21.800Z,7.10
2023-01-12T10:11:59.650Z,7.10
2023-01-12T10:14:32.484Z,7.20
2023-01-12T10:17:04.936Z,7.30
2023-01-12T10:20:18.269Z,7.30
2023-01-12T10:22:49.664Z,7.20
2023-01-12T10:25:22.173Z,7.30
2023-01-12T10:27:51.451Z,7.30
2023-01-12T10:30:19.925Z,7.40
2023-01-12T10:32:46.790Z,7.40
2023-01-12T10:35:16.359Z,7.40
2023-01-12T10:37:44.682Z,7.40
2023-01-12T10:40:43.777Z,7.40
2023-01-12T10:43:20.082Z,7.50
2023-01-12T10:46:02.990Z,7.50
2023-01-12T10:48:31.109Z,7.50
2023-01-12T10:51:06.776Z,7.50
2023-01-12T10:53:45.023Z,7.50
2023-01-12T10:56:19.595Z,7.50
2023-01-12T10:59:00.252Z,7.60
2023-01-12T11:01:52.441Z,7.60
2023-01-12T11:04:24.317Z,7.60
2023-01-12T11:07:04.989Z,7.70
2023-01-12T11:09:32.123Z,7.70
2023-01-12T11:12:18.459Z,7.70
2023-01-12T11:15:03.002Z,7.70
2023-01-12T11:18:01.455Z,7.70
2023-01-12T11:20:42.668Z,7.70
2023-01-12T11:23:27.826Z,7.70
2023-01-12T11:25:55.601Z,7.70
2023-01-12T11:28:38.002Z,7.70
2023-01-12T11:31:22.822Z,7.80
2023-01-12T11:33:51.744Z,7.70
2023-01-12T11:36:20.644Z,7.80
2023-01-12T11:39:00.894Z,7.70
2023-01-12T11:41:34.379Z,7.70
2023-01-12T11:44:23.742Z,7.70
2023-01-12T11:46:59.734Z,7.70
2023-01-12T11:49:41.614Z,7.70
2023-01-12T11:55:16.720Z,7.70
2023-01-12T11:58:11.440Z,7.70
2023-01-12T12:00:44.160Z,7.60
2023-01-12T12:03:40.361Z,7.70
2023-01-12T12:06:35.270Z,7.60
2023-01-12T12:09:43.586Z,7.70
2023-01-12T12:12:30.830Z,7.70
2023-01-12T12:15:25.319Z,7.70
2023-01-12T12:18:13.646Z,7.80
2023-01-12T12:21:18.028Z,7.80
2023-01-12T12:23:54.657Z,7.80
2023-01-12T12:26:30.837Z,7.70
2023-01-12T12:29:15.728Z,7.80
2023-01-12T12:32:16.912Z,7.80
2023-01-12T12:34:54.879Z,7.80
2023-01-12T12:37:36.069Z,7.80
2023-01-12T12:40:28.728Z,7.90
2023-01-12T12:43:31.494Z,7.80
2023-01-12T12:46:11.177Z,7.90
2023-01-12T12:48:57.941Z,7.90
2023-01-12T12:51:26.370Z,7.90
2023-01-12T12:53:54.558Z,7.90
2023-01-12T12:56:25.102Z,8.00
2023-01-12T12:58:56.468Z,7.90
2023-01-12T13:01:23.362Z,7.90
2023-01-12T13:04:00.599Z,7.90
2023-01-12T13:06:48.831Z,8.00
2023-01-12T13:09:15.479Z,8.00
2023-01-12T13:11:55.919Z,8.00
2023-01-12T13:14:43.185Z,8.00
2023-01-12T13:17:19.043Z,8.00
2023-01-12T13:19:49.831Z,8.00
2023-01-12T13:22:32.253Z,8.10
2023-01-12T13:25:10.910Z,8.00
2023-01-12T13:27:49.947Z,8.00
2023-01-12T13:30:24.746Z,8.10
2023-01-12T13:33:14.689Z,8.10
2023-01-12T13:35:44.347Z,8.00
2023-01-12T13:38:46.086Z,8.00
2023-01-12T13:41:41.161Z,8.10
2023-01-12T13:44:39.391Z,8.10
2023-01-12T13:47:14.419Z,8.10
2023-01-12T13:49:51.965Z,8.10
2023-01-12T13:52:34.195Z,8.10
2023-01-12T13:55:01.569Z,8.00
2023-01-12T13:57:31.125Z,8.00
2023-01-12T14:00:00.255Z,8.00
2023-01-12T14:02:32.522Z,8.00
2023-01-12T14:05:28.112Z,8.00
2023-01-12T14:08:06.454Z,8.00
2023-01-12T14:10:42.310Z,8.00
2023-01-12T14:13:11.829Z,8.10
2023-01-12T14:16:02.198Z,8.10
2023-01-12T14:18:45.269Z,8.10
2023-01-12T14:21:27.174Z,8.10
2023-01-12T14:24:08.290Z,8.10
2023-01-12T14:26:35.603Z,8.10
2023-01-12T14:29:02.290Z,8.10
2023-01-12T14:31:39.506Z,8.10
2023-01-12T14:34:20.991Z,8.00
2023-01-12T14:36:48.664Z,8.10
2023-01-12T14:39:20.160Z,8.10
2023-01-12T14:42:11.793Z,8.10
2023-01-12T14:45:14.137Z,8.10
2023-01-12T14:47:41.563Z,8.10
2023-01-12T14:50:14.338Z,8.00
2023-01-12T14:52:43.877Z,8.10
2023-01-12T14:55:37.879Z,8.10
2023-01-12T14:58:06.324Z,8.10
2023-01-12T15:00:36.209Z,8.10
2023-01-12T15:03:14.296Z,8.10
2023-01-12T15:05:42.044Z,8.00
2023-01-12T15:08:08.741Z,8.10
2023-01-12T15:10:40.867Z,8.10
2023-01-12T15:13:25.520Z,8.00
2023-01-12T15:16:12.145Z,8.00
2023-01-12T15:18:58.139Z,8.00
2023-01-12T15:21:44.215Z,8.00
2023-01-12T15:24:46.928Z,8.00
2023-01-12T15:27:19.325Z,8.00
2023-01-12T15:29:46.669Z,7.90
2023-01-12T15:32:38.038Z,7.90
2023-01-12T15:35:26.621Z,7.90
2023-01-12T15:37:55.456Z,8.00
2023-01-12T15:40:23.304Z,7.90
2023-01-12T15:42:53.679Z,7.90
2023-01-12T15:45:34.561Z,7.90
2023-01-12T15:48:02.989Z,8.00
2023-01-12T15:50:30.437Z,7.90
2023-01-12T15:52:59.060Z,7.90
2023-01-12T15:55:26.005Z,7.90
2023-01-12T15:57:53.161Z,7.90
2023-01-12T16:00:22.582Z,8.00
2023-01-12T16:02:50.961Z,8.00
2023-01-12T16:05:20.592Z,7.90
2023-01-12T16:07:48.733Z,7.90
2023-01-12T16:10:16.833Z,7.90
2023-01-12T16:12:44.327Z,7.90
2023-01-12T16:15:18.506Z,7.90
2023-01-12T16:17:45.453Z,7.90
2023-01-12T16:20:12.831Z,7.90
2023-01-12T16:22:39.589Z,7.90
2023-01-12T16:25:07.770Z,7.90
2023-01-12T16:27:36.160Z,7.90
2023-01-12T16:30:05.163Z,7.90
2023-01-12T16:32:32.037Z,7.90
2023-01-12T16:34:58.701Z,7.90
2023-01-12T16:37:27.599Z,7.90
2023-01-12T16:39:55.540Z,8.00
2023-01-12T16:42:23.109Z,7.90
2023-01-12T16:44:50.386Z,7.80
2023-01-12T16:47:20.621Z,7.80
2023-01-12T16:49:51.701Z,7.90
2023-01-12T16:52:21.240Z,7.80
2023-01-12T16:54:47.988Z,7.80
2023-01-12T16:57:16.747Z,7.80
2023-01-12T16:59:43.990Z,7.80
2023-01-12T17:02:14.792Z,7.90
2023-01-12T17:04:43.608Z,7.80
2023-01-12T17:07:10.973Z,7.90
2023-01-12T17:09:39.032Z,7.90
2023-01-12T17:12:06.951Z,7.80
2023-01-12T17:14:34.751Z,7.90
2023-01-12T17:17:07.335Z,7.90
2023-01-12T17:19:36.485Z,7.80
2023-01-12T17:22:06.317Z,7.80
2023-01-12T17:24:35.012Z,7.90
2023-01-12T17:27:02.846Z,7.90
2023-01-12T17:29:29.753Z,8.00
2023-01-12T17:32:03.722Z,8.00
2023-01-12T17:34:32.706Z,8.00
2023-01-12T17:37:07.854Z,8.00
2023-01-12T17:39:35.939Z,8.00
2023-01-12T17:42:22.071Z,8.00
2023-01-12T17:44:48.892Z,8.00
2023-01-12T17:47:15.741Z,8.00
2023-01-12T17:49:42.514Z,8.00
2023-01-12T17:52:09.326Z,8.00
2023-01-12T17:54:36.080Z,8.00
2023-01-12T17:57:02.969Z,8.00
2023-01-12T17:59:29.771Z,8.00
2023-01-12T18:01:57.402Z,8.10
2023-01-12T18:04:24.276Z,8.10
2023-01-12T18:06:51.196Z,8.00
2023-01-12T18:09:18.377Z,8.10
2023-01-12T18:11:45.214Z,8.00
2023-01-12T18:14:12.656Z,7.90
2023-01-12T18:16:39.748Z,8.00
2023-01-12T18:19:10.208Z,8.00
2023-01-12T18:21:37.138Z,8.00
2023-01-12T18:24:04.172Z,8.10
2023-01-12T18:26:35.619Z,8.10
2023-01-12T18:29:04.912Z,8.10
2023-01-12T18:31:37.185Z,8.10
2023-01-12T18:34:06.449Z,8.10
2023-01-12T18:36:38.875Z,8.10
2023-01-12T18:39:07.991Z,8.10
2023-01-12T18:41:54.877Z,8.10
2023-01-12T18:44:22.905Z,8.20
2023-01-12T18:47:08.515Z,8.20
2023-01-12T18:49:36.388Z,8.20
2023-01-12T18:52:23.172Z,8.20
2023-01-12T18:54:53.189Z,8.20
2023-01-12T18:57:22.887Z,8.20
2023-01-12T18:59:52.283Z,8.30
2023-01-12T19:02:19.720Z,8.30
2023-01-12T19:04:50.077Z,8.30
2023-01-12T19:07:27.137Z,8.30
2023-01-12T19:09:53.934Z,8.20
2023-01-12T19:12:20.736Z,8.20
2023-01-12T19:15:19.921Z,8.30
2023-01-12T19:17:46.959Z,8.20
2023-01-12T19:20:17.476Z,8.20
2023-01-12T19:23:03.036Z,8.20
2023-01-12T19:25:48.976Z,8.20
2023-01-12T19:28:35.333Z,8.20
2023-01-12T19:31:04.270Z,8.20
2023-01-12T19:33:31.255Z,8.20
2023-01-12T19:35:59.150Z,8.20
2023-01-12T19:38:26.589Z,8.20
2023-01-12T19:40:54.879Z,8.20
2023-01-12T19:43:26.174Z,8.20
2023-01-12T19:46:01.254Z,8.20
2023-01-12T19:48:29.530Z,8.20
2023-01-12T19:50:56.368Z,8.20
2023-01-12T19:53:28.591Z,8.10
2023-01-12T19:55:55.330Z,8.10
2023-01-12T19:58:22.563Z,8.20
2023-01-12T20:00:49.780Z,8.20
2023-01-12T20:03:19.487Z,8.20
2023-01-12T20:05:47.688Z,8.20
2023-01-12T20:08:15.292Z,8.10
2023-01-12T20:10:42.253Z,8.10
2023-01-12T20:13:12.087Z,8.30
2023-01-12T20:15:40.437Z,8.20
2023-01-12T20:18:08.786Z,8.20
2023-01-12T20:20:36.333Z,8.10
2023-01-12T20:23:03.081Z,8.20
2023-01-12T20:25:29.959Z,8.20
2023-01-12T20:27:57.607Z,8.20
2023-01-12T20:30:37.415Z,8.20
2023-01-12T20:33:05.990Z,8.20
2023-01-12T20:35:32.876Z,8.20
2023-01-12T20:38:00.169Z,8.20
2023-01-12T20:40:26.877Z,8.20
2023-01-12T20:42:53.961Z,8.10
2023-01-12T20:45:21.071Z,8.20
2023-01-12T20:47:47.790Z,8.20
2023-01-12T20:50:15.735Z,8.30
2023-01-12T20:52:42.451Z,8.20
2023-01-12T20:55:09.964Z,8.20
2023-01-12T20:57:38.959Z,8.20
2023-01-12T21:00:07.974Z,8.20
2023-01-12T21:02:35.991Z,8.20
2023-01-12T21:05:03.405Z,8.10
2023-01-12T21:07:30.212Z,8.10
2023-01-12T21:09:56.913Z,8.20
2023-01-12T21:12:25.867Z,8.20
2023-01-12T21:14:54.380Z,8.20
2023-01-12T21:17:21.639Z,8.20
2023-01-12T21:19:48.526Z,8.10
2023-01-12T21:22:15.406Z,8.10
2023-01-12T21:24:42.417Z,8.10
2023-01-12T21:27:09.261Z,8.10
2023-01-12T21:29:36.051Z,8.10
2023-01-12T21:32:03.403Z,8.10
2023-01-12T21:34:30.233Z,8.10
2023-01-12T21:36:57.561Z,8.10
2023-01-12T21:39:24.320Z,8.10
2023-01-12T21:42:09.779Z,8.10
2023-01-12T21:44:36.580Z,8.10
2023-01-12T21:47:03.405Z,8.10
2023-01-12T21:49:30.170Z,8.10
2023-01-12T21:51:57.060Z,8.10
2023-01-12T21:54:23.960Z,8.20
2023-01-12T21:56:57.337Z,8.10
2023-01-12T21:59:24.934Z,8.10
2023-01-12T22:01:51.866Z,8.20
2023-01-12T22:04:18.801Z,8.10
2023-01-12T22:06:45.518Z,8.20
2023-01-12T22:09:12.465Z,8.10
2023-01-12T22:11:39.187Z,8.10
2023-01-12T22:14:05.840Z,8.10
2023-01-12T22:16:32.695Z,8.10
2023-01-12T22:18:59.604Z,8.10
2023-01-12T22:21:26.777Z,8.20
2023-01-12T22:23:53.476Z,8.20
2023-01-12T22:26:20.486Z,8.20
2023-01-12T22:28:48.674Z,8.20
2023-01-12T22:31:18.654Z,8.20
2023-01-12T22:33:47.102Z,8.10
2023-01-12T22:36:13.999Z,8.20
2023-01-12T22:38:42.090Z,8.20
2023-01-12T22:41:11.113Z,8.20
2023-01-12T22:43:40.686Z,8.20
2023-01-12T22:46:22.696Z,8.20
2023-01-12T22:48:50.948Z,8.20
2023-01-12T22:51:20.752Z,8.20
2023-01-12T22:53:48.051Z,8.20
2023-01-12T22:56:15.037Z,8.20
2023-01-12T22:58:46.765Z,8.20
2023-01-12T23:01:14.659Z,8.20
2023-01-12T23:03:42.546Z,8.10
2023-01-12T23:06:14.504Z,8.10
2023-01-12T23:08:42.882Z,8.20
2023-01-12T23:11:13.618Z,8.20
2023-01-12T23:13:41.767Z,8.20
2023-01-12T23:16:09.905Z,8.30
2023-01-12T23:18:38.858Z,8.30
2023-01-12T23:21:18.090Z,8.30
2023-01-12T23:23:50.539Z,8.30
2023-01-12T23:26:20.402Z,8.30
2023-01-12T23:28:51.167Z,8.20
2023-01-12T23:31:21.755Z,8.20
2023-01-12T23:33:49.457Z,8.20
2023-01-12T23:36:19.490Z,8.30
2023-01-12T23:38:46.470Z,8.30
2023-01-12T23:41:19.545Z,8.30
2023-01-12T23:43:47.656Z,8.40
2023-01-12T23:46:20.120Z,8.30
2023-01-12T23:48:46.957Z,8.30
2023-01-12T23:51:13.970Z,8.40
2023-01-12T23:53:40.772Z,8.30
2023-01-12T23:56:09.723Z,8.40
2023-01-12T23:58:36.646Z,8.40
